sensor_id;sensor_type;location;lat;lon;timestamp;P1;durP1;ratioP1;P2;durP2;ratioP2
6143;SDS011;3103;49.492;8.474;2022-12-18T00:03:58;38.97;;;16.70;;
6143;SDS011;3103;49.492;8.474;2022-12-18T00:06:27;32.57;;;16.13;;
6143;SDS011;3103;49.492;8.474;2022-12-18T00:08:56;43.00;;;19.73;;
6143;SDS011;3103;49.492;8.474;2022-12-18T00:11:25;45.17;;;19.00;;
6143;SDS011;3103;49.492;8.474;2022-12-18T00:13:55;39.03;;;17.80;;
6143;SDS011;3103;49.492;8.474;2022-12-18T00:16:24;36.07;;;17.03;;
6143;SDS011;3103;49.492;8.474;2022-12-18T00:18:53;40.17;;;17.03;;
6143;SDS011;3103;49.492;8.474;2022-12-18T00:21:22;37.70;;;17.00;;
6143;SDS011;3103;49.492;8.474;2022-12-18T00:23:49;38.03;;;17.70;;
6143;SDS011;3103;49.492;8.474;2022-12-18T00:26:18;38.43;;;17.63;;
6143;SDS011;3103;49.492;8.474;2022-12-18T00:28:52;39.10;;;16.10;;
6143;SDS011;3103;49.492;8.474;2022-12-18T00:31:20;39.40;;;17.17;;
6143;SDS011;3103;49.492;8.474;2022-12-18T00:33:48;39.30;;;16.30;;
6143;SDS011;3103;49.492;8.474;2022-12-18T00:36:20;34.53;;;16.80;;
6143;SDS011;3103;49.492;8.474;2022-12-18T00:38:52;39.87;;;16.83;;
6143;SDS011;3103;49.492;8.474;2022-12-18T00:41:20;39.90;;;17.73;;
6143;SDS011;3103;49.492;8.474;2022-12-18T00:44:06;36.73;;;17.67;;
6143;SDS011;3103;49.492;8.474;2022-12-18T00:46:34;31.50;;;15.63;;
6143;SDS011;3103;49.492;8.474;2022-12-18T00:49:01;30.00;;;14.57;;
6143;SDS011;3103;49.492;8.474;2022-12-18T00:51:28;37.03;;;17.00;;
6143;SDS011;3103;49.492;8.474;2022-12-18T00:53:55;40.30;;;17.60;;
6143;SDS011;3103;49.492;8.474;2022-12-18T00:56:22;34.10;;;17.80;;
6143;SDS011;3103;49.492;8.474;2022-12-18T00:58:49;31.33;;;15.67;;
6143;SDS011;3103;49.492;8.474;2022-12-18T01:01:16;35.47;;;16.83;;
6143;SDS011;3103;49.492;8.474;2022-12-18T01:03:44;34.97;;;16.53;;
6143;SDS011;3103;49.492;8.474;2022-12-18T01:06:15;36.60;;;17.03;;
6143;SDS011;3103;49.492;8.474;2022-12-18T01:08:43;36.10;;;17.07;;
6143;SDS011;3103;49.492;8.474;2022-12-18T01:11:13;32.90;;;16.80;;
6143;SDS011;3103;49.492;8.474;2022-12-18T01:13:41;33.77;;;15.97;;
6143;SDS011;3103;49.492;8.474;2022-12-18T01:16:13;37.20;;;17.17;;
6143;SDS011;3103;49.492;8.474;2022-12-18T01:18:42;36.13;;;16.63;;
6143;SDS011;3103;49.492;8.474;2022-12-18T01:21:09;36.53;;;16.97;;
6143;SDS011;3103;49.492;8.474;2022-12-18T01:23:38;40.17;;;17.63;;
6143;SDS011;3103;49.492;8.474;2022-12-18T01:26:06;43.73;;;19.37;;
6143;SDS011;3103;49.492;8.474;2022-12-18T01:28:35;34.33;;;15.93;;
6143;SDS011;3103;49.492;8.474;2022-12-18T01:33:41;43.90;;;18.23;;
6143;SDS011;3103;49.492;8.474;2022-12-18T01:36:08;42.37;;;17.53;;
6143;SDS011;3103;49.492;8.474;2022-12-18T01:38:48;37.93;;;16.83;;
6143;SDS011;3103;49.492;8.474;2022-12-18T01:41:22;40.23;;;17.33;;
6143;SDS011;3103;49.492;8.474;2022-12-18T01:43:54;36.50;;;17.50;;
6143;SDS011;3103;49.492;8.474;2022-12-18T01:46:25;38.53;;;17.80;;
6143;SDS011;3103;49.492;8.474;2022-12-18T01:49:00;35.43;;;16.73;;
6143;SDS011;3103;49.492;8.474;2022-12-18T01:51:28;36.20;;;17.17;;
6143;SDS011;3103;49.492;8.474;2022-12-18T01:53:57;38.80;;;17.50;;
6143;SDS011;3103;49.492;8.474;2022-12-18T01:56:25;40.00;;;17.20;;
6143;SDS011;3103;49.492;8.474;2022-12-18T01:58:54;35.73;;;17.50;;
6143;SDS011;3103;49.492;8.474;2022-12-18T02:01:26;40.90;;;18.50;;
6143;SDS011;3103;49.492;8.474;2022-12-18T02:03:53;38.87;;;19.13;;
6143;SDS011;3103;49.492;8.474;2022-12-18T02:06:22;40.33;;;16.73;;
6143;SDS011;3103;49.492;8.474;2022-12-18T02:08:58;35.53;;;16.13;;
6143;SDS011;3103;49.492;8.474;2022-12-18T02:11:32;39.23;;;17.77;;
6143;SDS011;3103;49.492;8.474;2022-12-18T02:16:56;39.13;;;16.80;;
6143;SDS011;3103;49.492;8.474;2022-12-18T02:27:43;35.90;;;16.90;;
6143;SDS011;3103;49.492;8.474;2022-12-18T02:30:13;36.27;;;16.67;;
6143;SDS011;3103;49.492;8.474;2022-12-18T02:32:41;38.97;;;17.23;;
6143;SDS011;3103;49.492;8.474;2022-12-18T02:35:15;42.10;;;17.80;;
6143;SDS011;3103;49.492;8.474;2022-12-18T02:37:46;36.33;;;16.87;;
6143;SDS011;3103;49.492;8.474;2022-12-18T02:40:14;37.13;;;16.00;;
6143;SDS011;3103;49.492;8.474;2022-12-18T02:42:43;39.13;;;17.00;;
6143;SDS011;3103;49.492;8.474;2022-12-18T02:45:14;39.67;;;17.27;;
6143;SDS011;3103;49.492;8.474;2022-12-18T02:47:42;36.90;;;16.57;;
6143;SDS011;3103;49.492;8.474;2022-12-18T02:53:17;36.10;;;18.13;;
6143;SDS011;3103;49.492;8.474;2022-12-18T02:56:07;39.23;;;18.20;;
6143;SDS011;3103;49.492;8.474;2022-12-18T03:01:37;38.80;;;17.43;;
6143;SDS011;3103;49.492;8.474;2022-12-18T03:04:16;35.50;;;17.23;;
6143;SDS011;3103;49.492;8.474;2022-12-18T03:06:54;41.97;;;17.73;;
6143;SDS011;3103;49.492;8.474;2022-12-18T03:09:26;38.47;;;17.90;;
6143;SDS011;3103;49.492;8.474;2022-12-18T03:12:06;37.33;;;16.83;;
6143;SDS011;3103;49.492;8.474;2022-12-18T03:14:56;39.10;;;17.40;;
6143;SDS011;3103;49.492;8.474;2022-12-18T03:17:30;40.57;;;17.00;;
6143;SDS011;3103;49.492;8.474;2022-12-18T03:20:00;38.03;;;17.87;;
6143;SDS011;3103;49.492;8.474;2022-12-18T03:22:33;38.27;;;16.73;;
6143;SDS011;3103;49.492;8.474;2022-12-18T03:25:03;36.13;;;16.37;;
6143;SDS011;3103;49.492;8.474;2022-12-18T03:27:35;32.47;;;15.77;;
6143;SDS011;3103;49.492;8.474;2022-12-18T03:30:08;33.23;;;16.30;;
6143;SDS011;3103;49.492;8.474;2022-12-18T03:32:39;43.80;;;18.93;;
6143;SDS011;3103;49.492;8.474;2022-12-18T03:35:12;40.67;;;17.53;;
6143;SDS011;3103;49.492;8.474;2022-12-18T03:37:44;33.10;;;16.50;;
6143;SDS011;3103;49.492;8.474;2022-12-18T03:40:11;33.97;;;15.53;;
6143;SDS011;3103;49.492;8.474;2022-12-18T03:42:46;37.17;;;16.53;;
6143;SDS011;3103;49.492;8.474;2022-12-18T03:45:22;33.43;;;15.57;;
6143;SDS011;3103;49.492;8.474;2022-12-18T03:48:07;36.83;;;15.37;;
6143;SDS011;3103;49.492;8.474;2022-12-18T03:50:53;34.83;;;16.27;;
6143;SDS011;3103;49.492;8.474;2022-12-18T03:53:39;36.40;;;15.80;;
6143;SDS011;3103;49.492;8.474;2022-12-18T03:56:12;40.43;;;14.90;;
6143;SDS011;3103;49.492;8.474;2022-12-18T03:58:42;35.23;;;16.67;;
6143;SDS011;3103;49.492;8.474;2022-12-18T04:01:16;34.27;;;15.77;;
6143;SDS011;3103;49.492;8.474;2022-12-18T04:03:46;38.57;;;18.47;;
6143;SDS011;3103;49.492;8.474;2022-12-18T04:06:18;37.80;;;17.73;;
6143;SDS011;3103;49.492;8.474;2022-12-18T04:08:45;35.27;;;17.03;;
6143;SDS011;3103;49.492;8.474;2022-12-18T04:11:16;43.80;;;17.77;;
6143;SDS011;3103;49.492;8.474;2022-12-18T04:13:45;37.47;;;17.60;;
6143;SDS011;3103;49.492;8.474;2022-12-18T04:16:18;44.80;;;18.87;;
6143;SDS011;3103;49.492;8.474;2022-12-18T04:18:48;44.17;;;18.50;;
6143;SDS011;3103;49.492;8.474;2022-12-18T04:21:15;45.17;;;18.93;;
6143;SDS011;3103;49.492;8.474;2022-12-18T04:23:42;37.70;;;17.07;;
6143;SDS011;3103;49.492;8.474;2022-12-18T04:26:09;37.93;;;18.13;;
6143;SDS011;3103;49.492;8.474;2022-12-18T04:28:56;42.37;;;17.03;;
6143;SDS011;3103;49.492;8.474;2022-12-18T04:31:23;42.83;;;17.97;;
6143;SDS011;3103;49.492;8.474;2022-12-18T04:33:51;38.10;;;17.60;;
6143;SDS011;3103;49.492;8.474;2022-12-18T04:36:18;40.07;;;17.50;;
6143;SDS011;3103;49.492;8.474;2022-12-18T04:38:46;39.20;;;17.13;;
6143;SDS011;3103;49.492;8.474;2022-12-18T04:41:15;40.93;;;17.90;;
6143;SDS011;3103;49.492;8.474;2022-12-18T04:43:45;38.43;;;17.30;;
6143;SDS011;3103;49.492;8.474;2022-12-18T04:46:12;38.30;;;17.10;;
6143;SDS011;3103;49.492;8.474;2022-12-18T04:48:39;41.37;;;17.67;;
6143;SDS011;3103;49.492;8.474;2022-12-18T04:51:06;42.10;;;18.00;;
6143;SDS011;3103;49.492;8.474;2022-12-18T04:53:33;41.17;;;17.80;;
6143;SDS011;3103;49.492;8.474;2022-12-18T04:56:04;41.20;;;16.13;;
6143;SDS011;3103;49.492;8.474;2022-12-18T04:58:42;34.93;;;17.87;;
6143;SDS011;3103;49.492;8.474;2022-12-18T05:01:12;35.93;;;16.07;;
6143;SDS011;3103;49.492;8.474;2022-12-18T05:03:40;38.50;;;17.63;;
6143;SDS011;3103;49.492;8.474;2022-12-18T05:06:07;34.70;;;15.63;;
6143;SDS011;3103;49.492;8.474;2022-12-18T05:08:34;39.23;;;17.40;;
6143;SDS011;3103;49.492;8.474;2022-12-18T05:11:02;38.37;;;16.80;;
6143;SDS011;3103;49.492;8.474;2022-12-18T05:13:34;40.73;;;18.30;;
6143;SDS011;3103;49.492;8.474;2022-12-18T05:16:02;40.23;;;15.97;;
6143;SDS011;3103;49.492;8.474;2022-12-18T05:18:37;37.27;;;17.00;;
6143;SDS011;3103;49.492;8.474;2022-12-18T05:21:04;35.37;;;17.40;;
6143;SDS011;3103;49.492;8.474;2022-12-18T05:23:30;40.23;;;16.67;;
6143;SDS011;3103;49.492;8.474;2022-12-18T05:25:58;42.20;;;18.20;;
6143;SDS011;3103;49.492;8.474;2022-12-18T05:28:27;40.07;;;17.90;;
6143;SDS011;3103;49.492;8.474;2022-12-18T05:30:57;43.27;;;17.73;;
6143;SDS011;3103;49.492;8.474;2022-12-18T05:33:25;51.87;;;17.77;;
6143;SDS011;3103;49.492;8.474;2022-12-18T05:35:58;46.23;;;17.77;;
6143;SDS011;3103;49.492;8.474;2022-12-18T05:38:27;47.03;;;19.83;;
6143;SDS011;3103;49.492;8.474;2022-12-18T05:40:55;45.97;;;19.47;;
6143;SDS011;3103;49.492;8.474;2022-12-18T05:43:23;42.27;;;19.20;;
6143;SDS011;3103;49.492;8.474;2022-12-18T05:45:51;43.30;;;20.67;;
6143;SDS011;3103;49.492;8.474;2022-12-18T05:48:19;39.13;;;17.63;;
6143;SDS011;3103;49.492;8.474;2022-12-18T05:50:47;41.20;;;18.27;;
6143;SDS011;3103;49.492;8.474;2022-12-18T05:53:14;36.57;;;18.03;;
6143;SDS011;3103;49.492;8.474;2022-12-18T05:55:43;39.67;;;17.70;;
6143;SDS011;3103;49.492;8.474;2022-12-18T05:58:10;41.77;;;19.27;;
6143;SDS011;3103;49.492;8.474;2022-12-18T06:00:41;42.60;;;19.13;;
6143;SDS011;3103;49.492;8.474;2022-12-18T06:03:10;44.33;;;17.97;;
6143;SDS011;3103;49.492;8.474;2022-12-18T06:05:39;40.07;;;19.10;;
6143;SDS011;3103;49.492;8.474;2022-12-18T06:08:07;43.30;;;19.17;;
6143;SDS011;3103;49.492;8.474;2022-12-18T06:10:34;39.63;;;19.57;;
6143;SDS011;3103;49.492;8.474;2022-12-18T06:13:02;43.97;;;19.87;;
6143;SDS011;3103;49.492;8.474;2022-12-18T06:15:29;42.90;;;19.67;;
6143;SDS011;3103;49.492;8.474;2022-12-18T06:17:55;46.20;;;18.43;;
6143;SDS011;3103;49.492;8.474;2022-12-18T06:20:22;41.57;;;18.70;;
6143;SDS011;3103;49.492;8.474;2022-12-18T06:22:55;41.47;;;18.80;;
6143;SDS011;3103;49.492;8.474;2022-12-18T06:25:22;44.23;;;18.30;;
6143;SDS011;3103;49.492;8.474;2022-12-18T06:27:49;43.00;;;18.20;;
6143;SDS011;3103;49.492;8.474;2022-12-18T06:30:15;48.30;;;19.93;;
6143;SDS011;3103;49.492;8.474;2022-12-18T06:32:42;45.37;;;18.53;;
6143;SDS011;3103;49.492;8.474;2022-12-18T06:35:09;41.50;;;17.57;;
6143;SDS011;3103;49.492;8.474;2022-12-18T06:37:36;44.57;;;18.07;;
6143;SDS011;3103;49.492;8.474;2022-12-18T06:40:03;42.63;;;17.80;;
6143;SDS011;3103;49.492;8.474;2022-12-18T06:42:30;42.00;;;19.07;;
6143;SDS011;3103;49.492;8.474;2022-12-18T06:44:57;41.10;;;18.67;;
6143;SDS011;3103;49.492;8.474;2022-12-18T06:47:23;41.83;;;19.60;;
6143;SDS011;3103;49.492;8.474;2022-12-18T06:49:50;41.87;;;17.77;;
6143;SDS011;3103;49.492;8.474;2022-12-18T06:52:17;42.17;;;18.50;;
6143;SDS011;3103;49.492;8.474;2022-12-18T06:54:43;48.70;;;19.33;;
6143;SDS011;3103;49.492;8.474;2022-12-18T06:57:10;50.07;;;20.03;;
6143;SDS011;3103;49.492;8.474;2022-12-18T06:59:37;49.53;;;20.23;;
6143;SDS011;3103;49.492;8.474;2022-12-18T07:02:04;43.87;;;19.77;;
6143;SDS011;3103;49.492;8.474;2022-12-18T07:04:31;47.17;;;18.73;;
6143;SDS011;3103;49.492;8.474;2022-12-18T07:06:58;41.87;;;19.73;;
6143;SDS011;3103;49.492;8.474;2022-12-18T07:09:24;43.80;;;18.60;;
6143;SDS011;3103;49.492;8.474;2022-12-18T07:11:52;47.17;;;19.53;;
6143;SDS011;3103;49.492;8.474;2022-12-18T07:14:18;39.03;;;17.53;;
6143;SDS011;3103;49.492;8.474;2022-12-18T07:16:45;41.50;;;18.97;;
6143;SDS011;3103;49.492;8.474;2022-12-18T07:19:12;43.60;;;19.53;;
6143;SDS011;3103;49.492;8.474;2022-12-18T07:21:39;42.90;;;19.10;;
6143;SDS011;3103;49.492;8.474;2022-12-18T07:24:05;43.70;;;18.77;;
6143;SDS011;3103;49.492;8.474;2022-12-18T07:26:32;44.63;;;19.60;;
6143;SDS011;3103;49.492;8.474;2022-12-18T07:28:59;38.00;;;17.37;;
6143;SDS011;3103;49.492;8.474;2022-12-18T07:31:26;44.00;;;18.83;;
6143;SDS011;3103;49.492;8.474;2022-12-18T07:33:53;40.77;;;17.10;;
6143;SDS011;3103;49.492;8.474;2022-12-18T07:36:20;40.37;;;19.10;;
6143;SDS011;3103;49.492;8.474;2022-12-18T07:38:50;39.63;;;17.33;;
6143;SDS011;3103;49.492;8.474;2022-12-18T07:41:18;32.63;;;16.07;;
6143;SDS011;3103;49.492;8.474;2022-12-18T07:43:46;38.33;;;16.37;;
6143;SDS011;3103;49.492;8.474;2022-12-18T07:46:13;37.83;;;16.43;;
6143;SDS011;3103;49.492;8.474;2022-12-18T07:48:42;40.27;;;15.73;;
6143;SDS011;3103;49.492;8.474;2022-12-18T07:51:14;35.77;;;15.80;;
6143;SDS011;3103;49.492;8.474;2022-12-18T07:53:42;34.93;;;15.27;;
6143;SDS011;3103;49.492;8.474;2022-12-18T07:56:10;40.03;;;16.33;;
6143;SDS011;3103;49.492;8.474;2022-12-18T07:58:56;35.17;;;16.70;;
6143;SDS011;3103;49.492;8.474;2022-12-18T08:01:23;35.67;;;16.40;;
6143;SDS011;3103;49.492;8.474;2022-12-18T08:03:50;35.27;;;16.20;;
6143;SDS011;3103;49.492;8.474;2022-12-18T08:06:18;35.83;;;16.03;;
6143;SDS011;3103;49.492;8.474;2022-12-18T08:08:50;36.50;;;16.57;;
6143;SDS011;3103;49.492;8.474;2022-12-18T08:11:17;36.40;;;17.10;;
6143;SDS011;3103;49.492;8.474;2022-12-18T08:13:45;39.57;;;16.90;;
6143;SDS011;3103;49.492;8.474;2022-12-18T08:16:11;40.17;;;17.27;;
6143;SDS011;3103;49.492;8.474;2022-12-18T08:18:38;37.17;;;17.27;;
6143;SDS011;3103;49.492;8.474;2022-12-18T08:21:12;37.30;;;16.70;;
6143;SDS011;3103;49.492;8.474;2022-12-18T08:23:42;32.77;;;16.73;;
6143;SDS011;3103;49.492;8.474;2022-12-18T08:26:10;36.57;;;17.13;;
6143;SDS011;3103;49.492;8.474;2022-12-18T08:28:41;41.63;;;16.93;;
6143;SDS011;3103;49.492;8.474;2022-12-18T08:31:11;42.70;;;16.57;;
6143;SDS011;3103;49.492;8.474;2022-12-18T08:33:39;40.07;;;16.37;;
6143;SDS011;3103;49.492;8.474;2022-12-18T08:36:11;34.03;;;16.03;;
6143;SDS011;3103;49.492;8.474;2022-12-18T08:38:38;33.33;;;16.57;;
6143;SDS011;3103;49.492;8.474;2022-12-18T08:41:06;39.37;;;18.13;;
6143;SDS011;3103;49.492;8.474;2022-12-18T08:43:35;41.63;;;17.23;;
6143;SDS011;3103;49.492;8.474;2022-12-18T08:46:21;36.00;;;16.57;;
6143;SDS011;3103;49.492;8.474;2022-12-18T08:48:50;35.73;;;16.93;;
6143;SDS011;3103;49.492;8.474;2022-12-18T08:51:17;35.83;;;17.23;;
6143;SDS011;3103;49.492;8.474;2022-12-18T08:53:44;36.93;;;18.00;;
6143;SDS011;3103;49.492;8.474;2022-12-18T08:56:12;39.53;;;16.87;;
6143;SDS011;3103;49.492;8.474;2022-12-18T08:58:39;34.73;;;16.53;;
6143;SDS011;3103;49.492;8.474;2022-12-18T09:01:07;40.50;;;17.27;;
6143;SDS011;3103;49.492;8.474;2022-12-18T09:03:37;38.90;;;16.33;;
6143;SDS011;3103;49.492;8.474;2022-12-18T09:06:04;40.13;;;16.80;;
6143;SDS011;3103;49.492;8.474;2022-12-18T09:08:31;40.13;;;17.90;;
6143;SDS011;3103;49.492;8.474;2022-12-18T09:10:58;38.93;;;17.70;;
6143;SDS011;3103;49.492;8.474;2022-12-18T09:13:24;35.60;;;16.93;;
6143;SDS011;3103;49.492;8.474;2022-12-18T09:15:52;36.73;;;15.90;;
6143;SDS011;3103;49.492;8.474;2022-12-18T09:18:21;33.33;;;16.90;;
6143;SDS011;3103;49.492;8.474;2022-12-18T09:20:48;32.00;;;14.63;;
6143;SDS011;3103;49.492;8.474;2022-12-18T09:23:16;37.53;;;17.83;;
6143;SDS011;3103;49.492;8.474;2022-12-18T09:25:43;30.37;;;15.90;;
6143;SDS011;3103;49.492;8.474;2022-12-18T09:28:10;30.03;;;15.67;;
6143;SDS011;3103;49.492;8.474;2022-12-18T09:30:44;42.13;;;17.93;;
6143;SDS011;3103;49.492;8.474;2022-12-18T09:33:15;34.87;;;16.63;;
6143;SDS011;3103;49.492;8.474;2022-12-18T09:35:43;36.63;;;16.83;;
6143;SDS011;3103;49.492;8.474;2022-12-18T09:38:12;36.97;;;16.40;;
6143;SDS011;3103;49.492;8.474;2022-12-18T09:40:44;38.03;;;16.67;;
6143;SDS011;3103;49.492;8.474;2022-12-18T09:43:15;34.93;;;16.43;;
6143;SDS011;3103;49.492;8.474;2022-12-18T09:45:46;36.37;;;17.37;;
6143;SDS011;3103;49.492;8.474;2022-12-18T09:48:24;34.90;;;17.33;;
6143;SDS011;3103;49.492;8.474;2022-12-18T09:50:55;40.27;;;17.90;;
6143;SDS011;3103;49.492;8.474;2022-12-18T09:53:28;36.80;;;16.83;;
6143;SDS011;3103;49.492;8.474;2022-12-18T09:55:59;38.27;;;18.87;;
6143;SDS011;3103;49.492;8.474;2022-12-18T09:58:29;47.17;;;18.57;;
6143;SDS011;3103;49.492;8.474;2022-12-18T10:01:01;44.00;;;18.73;;
6143;SDS011;3103;49.492;8.474;2022-12-18T10:03:28;47.57;;;19.67;;
6143;SDS011;3103;49.492;8.474;2022-12-18T10:08:42;46.53;;;20.07;;
6143;SDS011;3103;49.492;8.474;2022-12-18T10:17:29;38.10;;;17.83;;
6143;SDS011;3103;49.492;8.474;2022-12-18T10:20:20;39.80;;;18.60;;
6143;SDS011;3103;49.492;8.474;2022-12-18T10:23:08;41.93;;;19.03;;
6143;SDS011;3103;49.492;8.474;2022-12-18T10:28:31;37.40;;;17.80;;
6143;SDS011;3103;49.492;8.474;2022-12-18T10:31:05;40.93;;;19.23;;
6143;SDS011;3103;49.492;8.474;2022-12-18T10:33:33;37.23;;;18.33;;
6143;SDS011;3103;49.492;8.474;2022-12-18T10:36:00;41.13;;;19.67;;
6143;SDS011;3103;49.492;8.474;2022-12-18T10:38:29;44.10;;;20.77;;
6143;SDS011;3103;49.492;8.474;2022-12-18T10:40:59;42.20;;;19.27;;
6143;SDS011;3103;49.492;8.474;2022-12-18T10:44:38;46.40;;;22.13;;
6143;SDS011;3103;49.492;8.474;2022-12-18T10:46:45;43.03;;;21.23;;
6143;SDS011;3103;49.492;8.474;2022-12-18T10:49:19;47.07;;;20.80;;
6143;SDS011;3103;49.492;8.474;2022-12-18T10:54:47;45.53;;;21.50;;
6143;SDS011;3103;49.492;8.474;2022-12-18T10:57:28;48.03;;;21.20;;
6143;SDS011;3103;49.492;8.474;2022-12-18T11:00:18;49.53;;;21.57;;
6143;SDS011;3103;49.492;8.474;2022-12-18T11:02:46;43.40;;;20.37;;
6143;SDS011;3103;49.492;8.474;2022-12-18T11:05:32;48.97;;;22.53;;
6143;SDS011;3103;49.492;8.474;2022-12-18T11:08:00;41.03;;;20.67;;
6143;SDS011;3103;49.492;8.474;2022-12-18T11:10:30;43.17;;;20.57;;
6143;SDS011;3103;49.492;8.474;2022-12-18T11:13:36;50.33;;;20.13;;
6143;SDS011;3103;49.492;8.474;2022-12-18T11:15:56;42.33;;;20.67;;
6143;SDS011;3103;49.492;8.474;2022-12-18T11:18:25;47.70;;;20.13;;
6143;SDS011;3103;49.492;8.474;2022-12-18T11:21:08;49.87;;;21.10;;
6143;SDS011;3103;49.492;8.474;2022-12-18T11:23:36;47.00;;;22.53;;
6143;SDS011;3103;49.492;8.474;2022-12-18T11:26:10;49.47;;;22.93;;
6143;SDS011;3103;49.492;8.474;2022-12-18T11:28:39;47.30;;;22.27;;
6143;SDS011;3103;49.492;8.474;2022-12-18T11:31:18;47.77;;;22.43;;
6143;SDS011;3103;49.492;8.474;2022-12-18T11:34:04;45.17;;;20.73;;
6143;SDS011;3103;49.492;8.474;2022-12-18T11:36:56;47.77;;;24.00;;
6143;SDS011;3103;49.492;8.474;2022-12-18T11:42:15;47.90;;;22.33;;
6143;SDS011;3103;49.492;8.474;2022-12-18T11:47:42;49.90;;;22.07;;
6143;SDS011;3103;49.492;8.474;2022-12-18T11:50:37;46.43;;;21.40;;
6143;SDS011;3103;49.492;8.474;2022-12-18T11:53:13;46.17;;;21.13;;
6143;SDS011;3103;49.492;8.474;2022-12-18T11:55:41;40.73;;;19.90;;
6143;SDS011;3103;49.492;8.474;2022-12-18T12:00:59;42.07;;;19.47;;
6143;SDS011;3103;49.492;8.474;2022-12-18T12:03:44;43.13;;;20.30;;
6143;SDS011;3103;49.492;8.474;2022-12-18T12:15:12;52.53;;;21.00;;
6143;SDS011;3103;49.492;8.474;2022-12-18T12:18:12;43.50;;;20.27;;
6143;SDS011;3103;49.492;8.474;2022-12-18T12:21:13;49.17;;;21.20;;
6143;SDS011;3103;49.492;8.474;2022-12-18T12:24:39;50.33;;;22.00;;
6143;SDS011;3103;49.492;8.474;2022-12-18T12:27:03;43.83;;;21.23;;
6143;SDS011;3103;49.492;8.474;2022-12-18T12:29:46;51.60;;;23.10;;
6143;SDS011;3103;49.492;8.474;2022-12-18T12:35:18;46.73;;;21.37;;
6143;SDS011;3103;49.492;8.474;2022-12-18T12:37:55;44.63;;;21.00;;
6143;SDS011;3103;49.492;8.474;2022-12-18T12:40:49;44.33;;;20.83;;
6143;SDS011;3103;49.492;8.474;2022-12-18T12:46:27;47.47;;;22.07;;
6143;SDS011;3103;49.492;8.474;2022-12-18T12:48:59;46.13;;;21.07;;
6143;SDS011;3103;49.492;8.474;2022-12-18T12:51:40;46.93;;;20.73;;
6143;SDS011;3103;49.492;8.474;2022-12-18T12:54:16;42.67;;;20.70;;
6143;SDS011;3103;49.492;8.474;2022-12-18T12:56:57;51.33;;;23.00;;
6143;SDS011;3103;49.492;8.474;2022-12-18T12:59:57;46.47;;;21.07;;
6143;SDS011;3103;49.492;8.474;2022-12-18T13:02:38;41.27;;;20.80;;
6143;SDS011;3103;49.492;8.474;2022-12-18T13:05:18;47.07;;;21.10;;
6143;SDS011;3103;49.492;8.474;2022-12-18T13:08:03;46.87;;;21.97;;
6143;SDS011;3103;49.492;8.474;2022-12-18T13:10:34;43.77;;;22.43;;
6143;SDS011;3103;49.492;8.474;2022-12-18T13:13:05;45.83;;;20.97;;
6143;SDS011;3103;49.492;8.474;2022-12-18T13:18:19;40.77;;;20.40;;
6143;SDS011;3103;49.492;8.474;2022-12-18T13:20:53;41.40;;;19.57;;
6143;SDS011;3103;49.492;8.474;2022-12-18T13:23:37;38.60;;;19.63;;
6143;SDS011;3103;49.492;8.474;2022-12-18T13:31:00;46.73;;;21.70;;
6143;SDS011;3103;49.492;8.474;2022-12-18T13:40:59;42.20;;;19.50;;
6143;SDS011;3103;49.492;8.474;2022-12-18T13:43:27;38.90;;;19.73;;
6143;SDS011;3103;49.492;8.474;2022-12-18T13:46:00;41.33;;;18.77;;
6143;SDS011;3103;49.492;8.474;2022-12-18T13:48:35;42.70;;;19.20;;
6143;SDS011;3103;49.492;8.474;2022-12-18T13:51:06;37.63;;;17.83;;
6143;SDS011;3103;49.492;8.474;2022-12-18T13:53:43;44.93;;;21.83;;
6143;SDS011;3103;49.492;8.474;2022-12-18T13:56:17;35.23;;;19.40;;
6143;SDS011;3103;49.492;8.474;2022-12-18T13:59:03;40.20;;;20.33;;
6143;SDS011;3103;49.492;8.474;2022-12-18T14:01:44;40.83;;;20.13;;
6143;SDS011;3103;49.492;8.474;2022-12-18T14:04:32;35.60;;;18.60;;
6143;SDS011;3103;49.492;8.474;2022-12-18T14:09:31;38.00;;;18.57;;
6143;SDS011;3103;49.492;8.474;2022-12-18T14:12:04;39.47;;;18.73;;
6143;SDS011;3103;49.492;8.474;2022-12-18T14:14:50;37.50;;;18.33;;
6143;SDS011;3103;49.492;8.474;2022-12-18T14:17:21;36.20;;;17.30;;
6143;SDS011;3103;49.492;8.474;2022-12-18T14:19:50;42.47;;;20.83;;
6143;SDS011;3103;49.492;8.474;2022-12-18T14:22:18;40.73;;;18.80;;
6143;SDS011;3103;49.492;8.474;2022-12-18T14:24:47;46.90;;;19.90;;
6143;SDS011;3103;49.492;8.474;2022-12-18T14:27:36;37.73;;;18.43;;
6143;SDS011;3103;49.492;8.474;2022-12-18T14:30:22;41.50;;;18.43;;
6143;SDS011;3103;49.492;8.474;2022-12-18T14:33:10;41.73;;;19.90;;
6143;SDS011;3103;49.492;8.474;2022-12-18T14:35:42;39.63;;;19.90;;
6143;SDS011;3103;49.492;8.474;2022-12-18T14:38:21;40.33;;;20.80;;
6143;SDS011;3103;49.492;8.474;2022-12-18T14:41:13;39.57;;;19.10;;
6143;SDS011;3103;49.492;8.474;2022-12-18T14:43:41;36.10;;;18.13;;
6143;SDS011;3103;49.492;8.474;2022-12-18T14:49:04;34.27;;;17.60;;
6143;SDS011;3103;49.492;8.474;2022-12-18T14:51:48;38.30;;;17.80;;
6143;SDS011;3103;49.492;8.474;2022-12-18T14:54:18;38.50;;;18.53;;
6143;SDS011;3103;49.492;8.474;2022-12-18T14:56:46;32.73;;;15.90;;
6143;SDS011;3103;49.492;8.474;2022-12-18T14:59:20;33.27;;;16.07;;
6143;SDS011;3103;49.492;8.474;2022-12-18T15:04:40;36.87;;;17.13;;
6143;SDS011;3103;49.492;8.474;2022-12-18T15:07:20;35.50;;;16.17;;
6143;SDS011;3103;49.492;8.474;2022-12-18T15:12:39;32.87;;;15.67;;
6143;SDS011;3103;49.492;8.474;2022-12-18T15:20:41;33.60;;;16.47;;
6143;SDS011;3103;49.492;8.474;2022-12-18T15:23:23;38.53;;;17.00;;
6143;SDS011;3103;49.492;8.474;2022-12-18T15:25:59;37.07;;;17.33;;
6143;SDS011;3103;49.492;8.474;2022-12-18T15:28:38;37.83;;;18.07;;
6143;SDS011;3103;49.492;8.474;2022-12-18T15:33:42;36.80;;;18.93;;
6143;SDS011;3103;49.492;8.474;2022-12-18T15:36:20;39.93;;;18.77;;
6143;SDS011;3103;49.492;8.474;2022-12-18T15:38:53;37.77;;;17.50;;
6143;SDS011;3103;49.492;8.474;2022-12-18T15:41:27;35.80;;;18.07;;
6143;SDS011;3103;49.492;8.474;2022-12-18T15:43:54;35.93;;;18.53;;
6143;SDS011;3103;49.492;8.474;2022-12-18T15:46:22;41.70;;;19.43;;
6143;SDS011;3103;49.492;8.474;2022-12-18T15:48:55;47.80;;;19.90;;
6143;SDS011;3103;49.492;8.474;2022-12-18T15:51:29;41.03;;;19.50;;
6143;SDS011;3103;49.492;8.474;2022-12-18T15:54:18;45.70;;;19.60;;
6143;SDS011;3103;49.492;8.474;2022-12-18T15:57:04;37.90;;;19.03;;
6143;SDS011;3103;49.492;8.474;2022-12-18T15:59:49;41.07;;;19.47;;
6143;SDS011;3103;49.492;8.474;2022-12-18T16:02:22;40.70;;;20.03;;
6143;SDS011;3103;49.492;8.474;2022-12-18T16:04:52;43.83;;;21.00;;
6143;SDS011;3103;49.492;8.474;2022-12-18T16:07:20;50.63;;;23.83;;
6143;SDS011;3103;49.492;8.474;2022-12-18T16:09:52;45.63;;;21.30;;
6143;SDS011;3103;49.492;8.474;2022-12-18T16:12:20;41.80;;;20.70;;
6143;SDS011;3103;49.492;8.474;2022-12-18T16:14:49;44.80;;;21.37;;
6143;SDS011;3103;49.492;8.474;2022-12-18T16:17:16;45.67;;;22.43;;
6143;SDS011;3103;49.492;8.474;2022-12-18T16:19:43;49.37;;;22.27;;
6143;SDS011;3103;49.492;8.474;2022-12-18T16:22:23;40.33;;;20.97;;
6143;SDS011;3103;49.492;8.474;2022-12-18T16:24:52;52.27;;;24.23;;
6143;SDS011;3103;49.492;8.474;2022-12-18T16:27:20;39.20;;;20.70;;
6143;SDS011;3103;49.492;8.474;2022-12-18T16:29:47;45.20;;;22.20;;
6143;SDS011;3103;49.492;8.474;2022-12-18T16:32:16;44.50;;;19.87;;
6143;SDS011;3103;49.492;8.474;2022-12-18T16:34:45;41.67;;;21.37;;
6143;SDS011;3103;49.492;8.474;2022-12-18T16:37:12;43.77;;;20.87;;
6143;SDS011;3103;49.492;8.474;2022-12-18T16:39:40;44.13;;;21.67;;
6143;SDS011;3103;49.492;8.474;2022-12-18T16:42:12;43.20;;;21.07;;
6143;SDS011;3103;49.492;8.474;2022-12-18T16:44:42;42.63;;;21.10;;
6143;SDS011;3103;49.492;8.474;2022-12-18T16:47:10;40.67;;;20.57;;
6143;SDS011;3103;49.492;8.474;2022-12-18T16:49:41;41.30;;;20.60;;
6143;SDS011;3103;49.492;8.474;2022-12-18T16:52:08;39.27;;;20.17;;